sensor_id;sensor_type;location;lat;lon;timestamp;P1;durP1;ratioP1;P2;durP2;ratioP2
81160;SDS011;70637;48.514;14.500;2023-08-17T00:01:40;11.70;;;9.73;;
81160;SDS011;70637;48.514;14.500;2023-08-17T00:04:06;10.90;;;8.70;;
81160;SDS011;70637;48.514;14.500;2023-08-17T00:06:32;12.07;;;9.82;;
81160;SDS011;70637;48.514;14.500;2023-08-17T00:08:57;14.25;;;10.25;;
81160;SDS011;70637;48.514;14.500;2023-08-17T00:11:23;12.13;;;9.90;;
81160;SDS011;70637;48.514;14.500;2023-08-17T00:13:49;10.55;;;9.05;;
81160;SDS011;70637;48.514;14.500;2023-08-17T00:16:14;11.52;;;9.52;;
81160;SDS011;70637;48.514;14.500;2023-08-17T00:18:40;12.27;;;9.23;;
81160;SDS011;70637;48.514;14.500;2023-08-17T00:21:06;12.75;;;8.88;;
81160;SDS011;70637;48.514;14.500;2023-08-17T00:23:32;10.82;;;9.18;;
81160;SDS011;70637;48.514;14.500;2023-08-17T00:25:58;13.80;;;9.43;;
81160;SDS011;70637;48.514;14.500;2023-08-17T00:28:24;12.18;;;9.50;;
81160;SDS011;70637;48.514;14.500;2023-08-17T00:30:50;10.65;;;8.95;;
81160;SDS011;70637;48.514;14.500;2023-08-17T00:33:16;10.73;;;9.63;;
81160;SDS011;70637;48.514;14.500;2023-08-17T00:35:42;9.80;;;7.95;;
81160;SDS011;70637;48.514;14.500;2023-08-17T00:38:07;10.80;;;8.77;;
81160;SDS011;70637;48.514;14.500;2023-08-17T00:40:34;12.43;;;9.23;;
81160;SDS011;70637;48.514;14.500;2023-08-17T00:42:59;9.98;;;8.98;;
81160;SDS011;70637;48.514;14.500;2023-08-17T00:45:27;9.93;;;9.02;;
81160;SDS011;70637;48.514;14.500;2023-08-17T00:47:56;14.07;;;9.02;;
81160;SDS011;70637;48.514;14.500;2023-08-17T00:50:23;13.05;;;8.48;;
81160;SDS011;70637;48.514;14.500;2023-08-17T00:52:50;13.07;;;9.52;;
81160;SDS011;70637;48.514;14.500;2023-08-17T00:55:17;10.02;;;8.52;;
81160;SDS011;70637;48.514;14.500;2023-08-17T00:57:42;10.85;;;8.90;;
81160;SDS011;70637;48.514;14.500;2023-08-17T01:00:10;9.43;;;8.40;;
81160;SDS011;70637;48.514;14.500;2023-08-17T01:02:38;10.73;;;7.82;;
81160;SDS011;70637;48.514;14.500;2023-08-17T01:05:06;12.75;;;8.02;;
81160;SDS011;70637;48.514;14.500;2023-08-17T01:07:32;11.40;;;8.30;;
81160;SDS011;70637;48.514;14.500;2023-08-17T01:09:58;11.00;;;8.35;;
81160;SDS011;70637;48.514;14.500;2023-08-17T01:12:31;9.15;;;8.23;;
81160;SDS011;70637;48.514;14.500;2023-08-17T01:15:19;9.43;;;7.30;;
81160;SDS011;70637;48.514;14.500;2023-08-17T01:18:38;8.68;;;7.78;;
81160;SDS011;70637;48.514;14.500;2023-08-17T01:20:59;9.68;;;8.52;;
81160;SDS011;70637;48.514;14.500;2023-08-17T01:23:26;10.70;;;8.40;;
81160;SDS011;70637;48.514;14.500;2023-08-17T01:25:52;9.85;;;8.55;;
81160;SDS011;70637;48.514;14.500;2023-08-17T01:28:19;11.05;;;8.52;;
81160;SDS011;70637;48.514;14.500;2023-08-17T01:33:37;8.77;;;7.80;;
81160;SDS011;70637;48.514;14.500;2023-08-17T01:38:40;11.80;;;8.48;;
81160;SDS011;70637;48.514;14.500;2023-08-17T01:41:08;8.77;;;7.68;;
81160;SDS011;70637;48.514;14.500;2023-08-17T01:43:43;9.38;;;7.45;;
81160;SDS011;70637;48.514;14.500;2023-08-17T01:46:14;10.35;;;7.30;;
81160;SDS011;70637;48.514;14.500;2023-08-17T01:48:40;9.02;;;8.10;;
81160;SDS011;70637;48.514;14.500;2023-08-17T01:51:06;12.50;;;7.75;;
81160;SDS011;70637;48.514;14.500;2023-08-17T01:53:32;8.75;;;7.15;;
81160;SDS011;70637;48.514;14.500;2023-08-17T01:55:58;10.63;;;7.15;;
81160;SDS011;70637;48.514;14.500;2023-08-17T01:58:24;9.85;;;7.90;;
81160;SDS011;70637;48.514;14.500;2023-08-17T02:00:49;9.57;;;7.72;;
81160;SDS011;70637;48.514;14.500;2023-08-17T02:03:15;9.75;;;7.78;;
81160;SDS011;70637;48.514;14.500;2023-08-17T02:05:44;9.20;;;7.40;;
81160;SDS011;70637;48.514;14.500;2023-08-17T02:08:10;9.27;;;7.25;;
81160;SDS011;70637;48.514;14.500;2023-08-17T02:10:36;11.07;;;7.70;;
81160;SDS011;70637;48.514;14.500;2023-08-17T02:13:02;9.50;;;7.53;;
81160;SDS011;70637;48.514;14.500;2023-08-17T02:15:27;10.90;;;8.40;;
81160;SDS011;70637;48.514;14.500;2023-08-17T02:17:53;9.73;;;7.80;;
81160;SDS011;70637;48.514;14.500;2023-08-17T02:20:19;9.23;;;8.05;;
81160;SDS011;70637;48.514;14.500;2023-08-17T02:22:44;9.27;;;7.55;;
81160;SDS011;70637;48.514;14.500;2023-08-17T02:25:10;9.20;;;7.57;;
81160;SDS011;70637;48.514;14.500;2023-08-17T02:27:35;12.55;;;7.63;;
81160;SDS011;70637;48.514;14.500;2023-08-17T02:30:02;8.20;;;7.40;;
81160;SDS011;70637;48.514;14.500;2023-08-17T02:32:28;10.20;;;7.40;;
81160;SDS011;70637;48.514;14.500;2023-08-17T02:34:54;10.20;;;7.82;;
81160;SDS011;70637;48.514;14.500;2023-08-17T02:37:19;9.15;;;6.65;;
81160;SDS011;70637;48.514;14.500;2023-08-17T02:39:45;10.18;;;7.28;;
81160;SDS011;70637;48.514;14.500;2023-08-17T02:42:11;7.60;;;6.80;;
81160;SDS011;70637;48.514;14.500;2023-08-17T02:44:36;7.32;;;6.60;;
81160;SDS011;70637;48.514;14.500;2023-08-17T02:47:02;10.55;;;7.25;;
81160;SDS011;70637;48.514;14.500;2023-08-17T02:49:28;7.32;;;6.63;;
81160;SDS011;70637;48.514;14.500;2023-08-17T02:51:53;10.57;;;7.07;;
81160;SDS011;70637;48.514;14.500;2023-08-17T02:54:19;12.90;;;7.68;;
81160;SDS011;70637;48.514;14.500;2023-08-17T02:56:44;9.20;;;8.23;;
81160;SDS011;70637;48.514;14.500;2023-08-17T02:59:10;9.95;;;7.50;;
81160;SDS011;70637;48.514;14.500;2023-08-17T03:01:36;9.27;;;8.32;;
81160;SDS011;70637;48.514;14.500;2023-08-17T03:04:03;8.95;;;7.60;;
81160;SDS011;70637;48.514;14.500;2023-08-17T03:06:29;7.97;;;6.40;;
81160;SDS011;70637;48.514;14.500;2023-08-17T03:08:55;8.23;;;7.20;;
81160;SDS011;70637;48.514;14.500;2023-08-17T03:11:20;10.50;;;7.30;;
81160;SDS011;70637;48.514;14.500;2023-08-17T03:13:46;15.18;;;10.35;;
81160;SDS011;70637;48.514;14.500;2023-08-17T03:16:13;55.88;;;29.55;;
81160;SDS011;70637;48.514;14.500;2023-08-17T03:18:39;83.47;;;40.38;;
81160;SDS011;70637;48.514;14.500;2023-08-17T03:21:04;58.10;;;32.33;;
81160;SDS011;70637;48.514;14.500;2023-08-17T03:23:32;51.88;;;27.25;;
81160;SDS011;70637;48.514;14.500;2023-08-17T03:25:57;35.58;;;21.00;;
81160;SDS011;70637;48.514;14.500;2023-08-17T03:28:23;21.55;;;13.82;;
81160;SDS011;70637;48.514;14.500;2023-08-17T03:30:54;15.23;;;11.50;;
81160;SDS011;70637;48.514;14.500;2023-08-17T03:33:20;15.50;;;10.88;;
81160;SDS011;70637;48.514;14.500;2023-08-17T03:35:46;15.73;;;11.15;;
81160;SDS011;70637;48.514;14.500;2023-08-17T03:38:11;15.27;;;10.63;;
81160;SDS011;70637;48.514;14.500;2023-08-17T03:40:37;13.43;;;10.13;;
81160;SDS011;70637;48.514;14.500;2023-08-17T03:43:05;12.73;;;9.52;;
81160;SDS011;70637;48.514;14.500;2023-08-17T03:45:30;13.65;;;10.82;;
81160;SDS011;70637;48.514;14.500;2023-08-17T03:47:57;10.25;;;9.15;;
81160;SDS011;70637;48.514;14.500;2023-08-17T03:50:25;11.70;;;8.70;;
81160;SDS011;70637;48.514;14.500;2023-08-17T03:52:52;10.05;;;8.23;;
81160;SDS011;70637;48.514;14.500;2023-08-17T03:55:18;11.40;;;8.60;;
81160;SDS011;70637;48.514;14.500;2023-08-17T03:57:44;11.18;;;9.38;;
81160;SDS011;70637;48.514;14.500;2023-08-17T04:00:10;10.65;;;8.75;;
81160;SDS011;70637;48.514;14.500;2023-08-17T04:02:36;12.90;;;8.50;;
81160;SDS011;70637;48.514;14.500;2023-08-17T04:05:02;11.35;;;8.30;;
81160;SDS011;70637;48.514;14.500;2023-08-17T04:07:28;8.65;;;7.78;;
81160;SDS011;70637;48.514;14.500;2023-08-17T04:09:54;8.60;;;7.57;;
81160;SDS011;70637;48.514;14.500;2023-08-17T04:12:19;10.55;;;7.55;;
81160;SDS011;70637;48.514;14.500;2023-08-17T04:14:45;9.65;;;8.07;;
81160;SDS011;70637;48.514;14.500;2023-08-17T04:17:11;10.18;;;7.72;;
81160;SDS011;70637;48.514;14.500;2023-08-17T04:19:36;8.52;;;7.35;;
81160;SDS011;70637;48.514;14.500;2023-08-17T04:22:02;9.30;;;8.23;;
81160;SDS011;70637;48.514;14.500;2023-08-17T04:24:28;9.75;;;8.52;;
81160;SDS011;70637;48.514;14.500;2023-08-17T04:26:54;9.25;;;8.35;;
81160;SDS011;70637;48.514;14.500;2023-08-17T04:29:20;9.15;;;8.25;;
81160;SDS011;70637;48.514;14.500;2023-08-17T04:31:45;9.63;;;8.13;;
81160;SDS011;70637;48.514;14.500;2023-08-17T04:34:11;9.90;;;7.82;;
81160;SDS011;70637;48.514;14.500;2023-08-17T04:36:37;12.65;;;8.13;;
81160;SDS011;70637;48.514;14.500;2023-08-17T04:39:02;11.02;;;9.30;;
81160;SDS011;70637;48.514;14.500;2023-08-17T04:41:29;10.00;;;8.35;;
81160;SDS011;70637;48.514;14.500;2023-08-17T04:43:55;8.68;;;7.80;;
81160;SDS011;70637;48.514;14.500;2023-08-17T04:46:21;13.10;;;9.32;;
81160;SDS011;70637;48.514;14.500;2023-08-17T04:48:47;10.07;;;8.27;;
81160;SDS011;70637;48.514;14.500;2023-08-17T04:51:12;12.23;;;8.05;;
81160;SDS011;70637;48.514;14.500;2023-08-17T04:53:39;12.45;;;8.25;;
81160;SDS011;70637;48.514;14.500;2023-08-17T04:56:05;12.18;;;8.07;;
81160;SDS011;70637;48.514;14.500;2023-08-17T04:58:31;9.90;;;8.40;;
81160;SDS011;70637;48.514;14.500;2023-08-17T05:00:57;10.82;;;8.43;;
81160;SDS011;70637;48.514;14.500;2023-08-17T05:03:23;12.20;;;8.13;;
81160;SDS011;70637;48.514;14.500;2023-08-17T05:05:49;10.52;;;8.63;;
81160;SDS011;70637;48.514;14.500;2023-08-17T05:08:16;13.38;;;8.57;;
81160;SDS011;70637;48.514;14.500;2023-08-17T05:10:42;11.20;;;7.45;;
81160;SDS011;70637;48.514;14.500;2023-08-17T05:13:08;12.18;;;10.10;;
81160;SDS011;70637;48.514;14.500;2023-08-17T05:15:33;10.68;;;8.45;;
81160;SDS011;70637;48.514;14.500;2023-08-17T05:17:59;10.23;;;7.45;;
81160;SDS011;70637;48.514;14.500;2023-08-17T05:20:25;8.20;;;7.18;;
81160;SDS011;70637;48.514;14.500;2023-08-17T05:22:51;9.43;;;7.40;;
81160;SDS011;70637;48.514;14.500;2023-08-17T05:25:16;9.32;;;7.40;;
81160;SDS011;70637;48.514;14.500;2023-08-17T05:27:42;10.90;;;7.43;;
81160;SDS011;70637;48.514;14.500;2023-08-17T05:30:08;8.05;;;7.18;;
81160;SDS011;70637;48.514;14.500;2023-08-17T05:32:33;11.25;;;7.50;;
81160;SDS011;70637;48.514;14.500;2023-08-17T05:34:59;7.03;;;6.32;;
81160;SDS011;70637;48.514;14.500;2023-08-17T05:37:25;9.80;;;7.32;;
81160;SDS011;70637;48.514;14.500;2023-08-17T05:39:50;8.07;;;7.25;;
81160;SDS011;70637;48.514;14.500;2023-08-17T05:42:16;10.50;;;6.85;;
81160;SDS011;70637;48.514;14.500;2023-08-17T05:44:41;9.35;;;7.38;;
81160;SDS011;70637;48.514;14.500;2023-08-17T05:47:07;8.77;;;6.90;;
81160;SDS011;70637;48.514;14.500;2023-08-17T05:49:33;8.75;;;6.53;;
81160;SDS011;70637;48.514;14.500;2023-08-17T05:51:58;7.85;;;6.55;;
81160;SDS011;70637;48.514;14.500;2023-08-17T05:54:24;11.57;;;6.65;;
81160;SDS011;70637;48.514;14.500;2023-08-17T05:56:49;10.15;;;7.70;;
81160;SDS011;70637;48.514;14.500;2023-08-17T05:59:15;9.10;;;6.47;;
81160;SDS011;70637;48.514;14.500;2023-08-17T06:01:41;8.30;;;6.68;;
81160;SDS011;70637;48.514;14.500;2023-08-17T06:04:06;9.18;;;7.10;;
81160;SDS011;70637;48.514;14.500;2023-08-17T06:06:32;8.60;;;6.97;;
81160;SDS011;70637;48.514;14.500;2023-08-17T06:08:58;7.85;;;6.78;;
81160;SDS011;70637;48.514;14.500;2023-08-17T06:11:24;8.57;;;7.07;;
81160;SDS011;70637;48.514;14.500;2023-08-17T06:13:50;9.75;;;6.57;;
81160;SDS011;70637;48.514;14.500;2023-08-17T06:16:15;10.43;;;6.57;;
81160;SDS011;70637;48.514;14.500;2023-08-17T06:18:41;8.77;;;6.43;;
81160;SDS011;70637;48.514;14.500;2023-08-17T06:21:07;7.30;;;6.50;;
81160;SDS011;70637;48.514;14.500;2023-08-17T06:23:33;9.98;;;7.35;;
81160;SDS011;70637;48.514;14.500;2023-08-17T06:25:59;10.60;;;7.60;;
81160;SDS011;70637;48.514;14.500;2023-08-17T06:28:25;13.93;;;7.82;;
81160;SDS011;70637;48.514;14.500;2023-08-17T06:30:52;9.07;;;6.57;;
81160;SDS011;70637;48.514;14.500;2023-08-17T06:33:19;11.75;;;6.05;;
81160;SDS011;70637;48.514;14.500;2023-08-17T06:35:45;6.50;;;5.90;;
81160;SDS011;70637;48.514;14.500;2023-08-17T06:38:10;6.35;;;5.75;;
81160;SDS011;70637;48.514;14.500;2023-08-17T06:40:37;6.90;;;6.20;;
81160;SDS011;70637;48.514;14.500;2023-08-17T06:43:02;13.25;;;6.38;;
81160;SDS011;70637;48.514;14.500;2023-08-17T06:45:29;8.93;;;6.32;;
81160;SDS011;70637;48.514;14.500;2023-08-17T06:47:56;7.90;;;6.30;;
81160;SDS011;70637;48.514;14.500;2023-08-17T06:50:22;9.50;;;6.50;;
81160;SDS011;70637;48.514;14.500;2023-08-17T06:52:48;7.53;;;6.68;;
81160;SDS011;70637;48.514;14.500;2023-08-17T06:55:13;8.27;;;6.85;;
81160;SDS011;70637;48.514;14.500;2023-08-17T06:57:41;8.05;;;7.25;;
81160;SDS011;70637;48.514;14.500;2023-08-17T07:00:07;9.27;;;8.20;;
81160;SDS011;70637;48.514;14.500;2023-08-17T07:02:34;9.52;;;7.78;;
81160;SDS011;70637;48.514;14.500;2023-08-17T07:05:00;10.60;;;8.60;;
81160;SDS011;70637;48.514;14.500;2023-08-17T07:07:26;10.43;;;8.10;;
81160;SDS011;70637;48.514;14.500;2023-08-17T07:09:51;9.88;;;8.88;;
81160;SDS011;70637;48.514;14.500;2023-08-17T07:12:17;11.18;;;9.45;;
81160;SDS011;70637;48.514;14.500;2023-08-17T07:14:44;11.27;;;8.65;;
81160;SDS011;70637;48.514;14.500;2023-08-17T07:17:10;11.73;;;7.70;;
81160;SDS011;70637;48.514;14.500;2023-08-17T07:19:35;11.63;;;7.28;;
81160;SDS011;70637;48.514;14.500;2023-08-17T07:22:01;9.45;;;7.57;;
81160;SDS011;70637;48.514;14.500;2023-08-17T07:24:27;10.48;;;7.47;;
81160;SDS011;70637;48.514;14.500;2023-08-17T07:26:52;8.43;;;6.68;;
81160;SDS011;70637;48.514;14.500;2023-08-17T07:29:18;9.68;;;6.97;;
81160;SDS011;70637;48.514;14.500;2023-08-17T07:31:44;8.60;;;7.47;;
81160;SDS011;70637;48.514;14.500;2023-08-17T07:34:09;8.38;;;7.57;;
81160;SDS011;70637;48.514;14.500;2023-08-17T07:36:35;8.10;;;7.30;;
81160;SDS011;70637;48.514;14.500;2023-08-17T07:39:01;10.35;;;7.90;;
81160;SDS011;70637;48.514;14.500;2023-08-17T07:41:27;12.55;;;7.95;;
81160;SDS011;70637;48.514;14.500;2023-08-17T07:43:52;9.50;;;8.57;;
81160;SDS011;70637;48.514;14.500;2023-08-17T07:46:18;9.50;;;7.82;;
81160;SDS011;70637;48.514;14.500;2023-08-17T07:48:44;8.75;;;7.35;;
81160;SDS011;70637;48.514;14.500;2023-08-17T07:51:09;9.77;;;8.02;;
81160;SDS011;70637;48.514;14.500;2023-08-17T07:53:35;10.65;;;8.15;;
81160;SDS011;70637;48.514;14.500;2023-08-17T07:56:01;9.73;;;8.43;;
81160;SDS011;70637;48.514;14.500;2023-08-17T07:58:26;11.27;;;8.52;;
81160;SDS011;70637;48.514;14.500;2023-08-17T08:00:54;8.45;;;7.53;;
81160;SDS011;70637;48.514;14.500;2023-08-17T08:03:20;8.75;;;7.85;;
81160;SDS011;70637;48.514;14.500;2023-08-17T08:05:45;10.50;;;7.47;;
81160;SDS011;70637;48.514;14.500;2023-08-17T08:08:11;10.05;;;8.02;;
81160;SDS011;70637;48.514;14.500;2023-08-17T08:10:37;11.45;;;8.10;;
81160;SDS011;70637;48.514;14.500;2023-08-17T08:13:03;9.82;;;8.82;;
81160;SDS011;70637;48.514;14.500;2023-08-17T08:15:29;13.45;;;8.57;;
81160;SDS011;70637;48.514;14.500;2023-08-17T08:17:55;10.32;;;8.57;;
81160;SDS011;70637;48.514;14.500;2023-08-17T08:20:20;10.18;;;9.15;;
81160;SDS011;70637;48.514;14.500;2023-08-17T08:22:46;10.90;;;9.20;;
81160;SDS011;70637;48.514;14.500;2023-08-17T08:25:12;10.80;;;8.73;;
81160;SDS011;70637;48.514;14.500;2023-08-17T08:27:38;14.50;;;8.93;;
81160;SDS011;70637;48.514;14.500;2023-08-17T08:30:04;10.65;;;8.75;;
81160;SDS011;70637;48.514;14.500;2023-08-17T08:32:30;8.50;;;7.70;;
81160;SDS011;70637;48.514;14.500;2023-08-17T08:34:56;9.27;;;8.27;;
81160;SDS011;70637;48.514;14.500;2023-08-17T08:37:22;10.48;;;8.13;;
81160;SDS011;70637;48.514;14.500;2023-08-17T08:39:48;9.63;;;8.02;;
81160;SDS011;70637;48.514;14.500;2023-08-17T08:42:18;8.32;;;7.50;;
81160;SDS011;70637;48.514;14.500;2023-08-17T08:44:44;12.50;;;9.25;;
81160;SDS011;70637;48.514;14.500;2023-08-17T08:47:12;10.63;;;8.27;;
81160;SDS011;70637;48.514;14.500;2023-08-17T08:49:39;10.25;;;8.00;;
81160;SDS011;70637;48.514;14.500;2023-08-17T08:52:09;9.00;;;7.95;;
81160;SDS011;70637;48.514;14.500;2023-08-17T08:54:41;12.27;;;8.82;;
81160;SDS011;70637;48.514;14.500;2023-08-17T08:57:12;11.73;;;9.32;;
81160;SDS011;70637;48.514;14.500;2023-08-17T08:59:41;8.80;;;7.90;;
81160;SDS011;70637;48.514;14.500;2023-08-17T09:02:14;10.77;;;8.30;;
81160;SDS011;70637;48.514;14.500;2023-08-17T09:04:41;10.20;;;8.48;;
81160;SDS011;70637;48.514;14.500;2023-08-17T09:07:10;10.48;;;8.07;;
81160;SDS011;70637;48.514;14.500;2023-08-17T09:09:38;10.38;;;7.90;;
81160;SDS011;70637;48.514;14.500;2023-08-17T09:12:05;9.88;;;8.27;;
81160;SDS011;70637;48.514;14.500;2023-08-17T09:14:33;8.40;;;7.55;;
81160;SDS011;70637;48.514;14.500;2023-08-17T09:16:59;14.90;;;8.73;;
81160;SDS011;70637;48.514;14.500;2023-08-17T09:19:24;10.90;;;8.63;;
81160;SDS011;70637;48.514;14.500;2023-08-17T09:21:50;13.20;;;7.72;;
81160;SDS011;70637;48.514;14.500;2023-08-17T09:24:16;9.77;;;7.88;;
81160;SDS011;70637;48.514;14.500;2023-08-17T09:26:42;8.50;;;7.70;;
81160;SDS011;70637;48.514;14.500;2023-08-17T09:29:18;7.55;;;6.70;;
81160;SDS011;70637;48.514;14.500;2023-08-17T09:31:44;7.82;;;7.03;;
81160;SDS011;70637;48.514;14.500;2023-08-17T09:34:10;10.18;;;8.30;;
81160;SDS011;70637;48.514;14.500;2023-08-17T09:36:36;9.73;;;7.40;;
81160;SDS011;70637;48.514;14.500;2023-08-17T09:39:02;12.38;;;11.07;;
81160;SDS011;70637;48.514;14.500;2023-08-17T09:41:28;10.18;;;8.68;;
81160;SDS011;70637;48.514;14.500;2023-08-17T09:43:54;10.27;;;7.63;;
81160;SDS011;70637;48.514;14.500;2023-08-17T09:46:20;11.13;;;7.78;;
81160;SDS011;70637;48.514;14.500;2023-08-17T09:48:47;9.75;;;6.93;;
81160;SDS011;70637;48.514;14.500;2023-08-17T09:51:16;9.95;;;7.82;;
81160;SDS011;70637;48.514;14.500;2023-08-17T09:53:42;10.38;;;7.22;;
81160;SDS011;70637;48.514;14.500;2023-08-17T09:56:08;8.30;;;7.40;;
81160;SDS011;70637;48.514;14.500;2023-08-17T09:58:36;8.35;;;6.70;;
81160;SDS011;70637;48.514;14.500;2023-08-17T10:01:05;10.73;;;6.47;;
81160;SDS011;70637;48.514;14.500;2023-08-17T10:03:33;13.35;;;6.13;;
81160;SDS011;70637;48.514;14.500;2023-08-17T10:06:01;7.25;;;6.40;;
81160;SDS011;70637;48.514;14.500;2023-08-17T10:08:31;6.70;;;6.05;;
81160;SDS011;70637;48.514;14.500;2023-08-17T10:11:02;9.00;;;7.30;;
81160;SDS011;70637;48.514;14.500;2023-08-17T10:13:34;9.95;;;6.82;;
81160;SDS011;70637;48.514;14.500;2023-08-17T10:19:05;7.97;;;6.65;;
81160;SDS011;70637;48.514;14.500;2023-08-17T10:21:39;8.63;;;7.72;;
81160;SDS011;70637;48.514;14.500;2023-08-17T10:24:22;8.32;;;7.50;;
81160;SDS011;70637;48.514;14.500;2023-08-17T10:26:48;8.43;;;7.63;;
81160;SDS011;70637;48.514;14.500;2023-08-17T10:29:14;12.88;;;8.20;;
81160;SDS011;70637;48.514;14.500;2023-08-17T10:31:42;9.25;;;6.82;;
81160;SDS011;70637;48.514;14.500;2023-08-17T10:34:10;10.65;;;6.80;;
81160;SDS011;70637;48.514;14.500;2023-08-17T10:36:37;7.93;;;6.50;;
81160;SDS011;70637;48.514;14.500;2023-08-17T10:39:22;8.45;;;6.97;;
81160;SDS011;70637;48.514;14.500;2023-08-17T10:41:50;7.78;;;6.15;;
81160;SDS011;70637;48.514;14.500;2023-08-17T10:44:17;8.48;;;6.72;;
81160;SDS011;70637;48.514;14.500;2023-08-17T10:47:18;11.10;;;6.22;;
81160;SDS011;70637;48.514;14.500;2023-08-17T10:52:30;8.05;;;5.82;;
81160;SDS011;70637;48.514;14.500;2023-08-17T10:55:07;10.85;;;5.57;;
81160;SDS011;70637;48.514;14.500;2023-08-17T10:57:38;6.28;;;5.50;;
81160;SDS011;70637;48.514;14.500;2023-08-17T11:02:35;7.32;;;5.75;;
81160;SDS011;70637;48.514;14.500;2023-08-17T11:05:02;6.82;;;6.13;;
81160;SDS011;70637;48.514;14.500;2023-08-17T11:07:39;6.68;;;5.47;;
81160;SDS011;70637;48.514;14.500;2023-08-17T11:10:10;8.15;;;5.80;;
81160;SDS011;70637;48.514;14.500;2023-08-17T11:12:45;6.57;;;5.20;;
81160;SDS011;70637;48.514;14.500;2023-08-17T11:15:11;6.78;;;5.50;;
81160;SDS011;70637;48.514;14.500;2023-08-17T11:17:36;6.10;;;5.45;;
81160;SDS011;70637;48.514;14.500;2023-08-17T11:20:03;7.57;;;5.50;;
81160;SDS011;70637;48.514;14.500;2023-08-17T11:22:29;7.43;;;5.60;;
81160;SDS011;70637;48.514;14.500;2023-08-17T11:24:55;6.78;;;5.13;;
81160;SDS011;70637;48.514;14.500;2023-08-17T11:27:21;8.13;;;5.15;;
81160;SDS011;70637;48.514;14.500;2023-08-17T11:29:47;7.28;;;5.18;;
81160;SDS011;70637;48.514;14.500;2023-08-17T11:32:15;7.82;;;5.50;;
81160;SDS011;70637;48.514;14.500;2023-08-17T11:34:42;6.57;;;5.00;;
81160;SDS011;70637;48.514;14.500;2023-08-17T11:37:08;7.43;;;5.57;;
81160;SDS011;70637;48.514;14.500;2023-08-17T11:39:36;6.05;;;4.80;;
81160;SDS011;70637;48.514;14.500;2023-08-17T11:42:02;7.10;;;4.47;;
81160;SDS011;70637;48.514;14.500;2023-08-17T11:44:29;6.25;;;4.40;;
81160;SDS011;70637;48.514;14.500;2023-08-17T11:46:54;5.43;;;4.43;;
81160;SDS011;70637;48.514;14.500;2023-08-17T11:49:20;8.57;;;4.30;;
81160;SDS011;70637;48.514;14.500;2023-08-17T11:51:49;5.25;;;4.40;;
81160;SDS011;70637;48.514;14.500;2023-08-17T11:54:16;6.20;;;4.72;;
81160;SDS011;70637;48.514;14.500;2023-08-17T11:56:42;6.63;;;4.63;;
81160;SDS011;70637;48.514;14.500;2023-08-17T11:59:08;5.15;;;4.47;;
81160;SDS011;70637;48.514;14.500;2023-08-17T12:01:39;5.30;;;4.75;;
81160;SDS011;70637;48.514;14.500;2023-08-17T12:04:05;7.85;;;4.72;;
81160;SDS011;70637;48.514;14.500;2023-08-17T12:06:32;7.97;;;4.53;;
81160;SDS011;70637;48.514;14.500;2023-08-17T12:08:57;8.27;;;4.13;;
81160;SDS011;70637;48.514;14.500;2023-08-17T12:11:24;5.88;;;4.03;;
81160;SDS011;70637;48.514;14.500;2023-08-17T12:13:50;5.30;;;3.92;;
81160;SDS011;70637;48.514;14.500;2023-08-17T12:16:17;4.68;;;4.28;;
81160;SDS011;70637;48.514;14.500;2023-08-17T12:18:44;5.22;;;4.30;;
81160;SDS011;70637;48.514;14.500;2023-08-17T12:21:13;6.63;;;4.45;;
81160;SDS011;70637;48.514;14.500;2023-08-17T12:23:39;8.25;;;4.32;;
81160;SDS011;70637;48.514;14.500;2023-08-17T12:26:05;4.55;;;4.05;;
81160;SDS011;70637;48.514;14.500;2023-08-17T12:28:30;7.18;;;3.92;;
81160;SDS011;70637;48.514;14.500;2023-08-17T12:30:58;5.80;;;3.90;;
81160;SDS011;70637;48.514;14.500;2023-08-17T12:33:25;4.65;;;3.75;;
81160;SDS011;70637;48.514;14.500;2023-08-17T12:35:51;6.30;;;3.55;;
81160;SDS011;70637;48.514;14.500;2023-08-17T12:38:16;4.10;;;3.70;;
81160;SDS011;70637;48.514;14.500;2023-08-17T12:40:42;4.38;;;3.13;;
81160;SDS011;70637;48.514;14.500;2023-08-17T12:43:08;5.18;;;3.30;;
81160;SDS011;70637;48.514;14.500;2023-08-17T12:45:33;4.13;;;3.40;;
81160;SDS011;70637;48.514;14.500;2023-08-17T12:47:59;5.55;;;3.13;;
81160;SDS011;70637;48.514;14.500;2023-08-17T12:50:25;6.05;;;3.65;;
81160;SDS011;70637;48.514;14.500;2023-08-17T12:52:50;4.57;;;3.20;;
81160;SDS011;70637;48.514;14.500;2023-08-17T12:55:16;5.75;;;3.13;;
81160;SDS011;70637;48.514;14.500;2023-08-17T12:57:42;4.35;;;3.30;;
81160;SDS011;70637;48.514;14.500;2023-08-17T13:00:07;4.25;;;2.90;;
81160;SDS011;70637;48.514;14.500;2023-08-17T13:02:34;5.55;;;3.20;;
81160;SDS011;70637;48.514;14.500;2023-08-17T13:04:59;4.00;;;3.10;;
81160;SDS011;70637;48.514;14.500;2023-08-17T13:07:25;4.30;;;3.03;;
81160;SDS011;70637;48.514;14.500;2023-08-17T13:09:50;5.10;;;3.40;;
81160;SDS011;70637;48.514;14.500;2023-08-17T13:12:16;3.88;;;3.13;;
81160;SDS011;70637;48.514;14.500;2023-08-17T13:14:42;3.60;;;3.08;;
81160;SDS011;70637;48.514;14.500;2023-08-17T13:17:07;4.97;;;3.58;;
81160;SDS011;70637;48.514;14.500;2023-08-17T13:19:34;4.63;;;3.63;;
81160;SDS011;70637;48.514;14.500;2023-08-17T13:22:00;5.97;;;4.13;;
81160;SDS011;70637;48.514;14.500;2023-08-17T13:24:27;4.32;;;3.80;;
81160;SDS011;70637;48.514;14.500;2023-08-17T13:26:53;4.60;;;4.10;;
81160;SDS011;70637;48.514;14.500;2023-08-17T13:29:19;5.57;;;3.65;;
81160;SDS011;70637;48.514;14.500;2023-08-17T13:31:49;3.90;;;3.38;;
81160;SDS011;70637;48.514;14.500;2023-08-17T13:34:14;4.85;;;3.35;;
81160;SDS011;70637;48.514;14.500;2023-08-17T13:36:40;5.85;;;3.28;;
81160;SDS011;70637;48.514;14.500;2023-08-17T13:39:06;3.63;;;3.08;;
81160;SDS011;70637;48.514;14.500;2023-08-17T13:41:31;4.00;;;2.97;;
81160;SDS011;70637;48.514;14.500;2023-08-17T13:43:57;5.55;;;3.50;;
81160;SDS011;70637;48.514;14.500;2023-08-17T13:46:23;4.32;;;3.15;;
81160;SDS011;70637;48.514;14.500;2023-08-17T13:48:48;10.32;;;2.92;;
81160;SDS011;70637;48.514;14.500;2023-08-17T13:51:14;5.88;;;3.22;;
81160;SDS011;70637;48.514;14.500;2023-08-17T13:53:40;3.58;;;3.00;;
81160;SDS011;70637;48.514;14.500;2023-08-17T13:56:06;5.18;;;3.35;;
81160;SDS011;70637;48.514;14.500;2023-08-17T13:58:31;4.13;;;3.10;;
81160;SDS011;70637;48.514;14.500;2023-08-17T14:00:57;3.88;;;3.22;;
81160;SDS011;70637;48.514;14.500;2023-08-17T14:03:23;3.92;;;3.30;;
81160;SDS011;70637;48.514;14.500;2023-08-17T14:05:48;5.82;;;3.40;;
81160;SDS011;70637;48.514;14.500;2023-08-17T14:08:14;5.00;;;3.20;;
81160;SDS011;70637;48.514;14.500;2023-08-17T14:10:40;4.20;;;2.88;;
81160;SDS011;70637;48.514;14.500;2023-08-17T14:13:05;6.43;;;3.08;;
81160;SDS011;70637;48.514;14.500;2023-08-17T14:15:31;4.45;;;2.80;;
81160;SDS011;70637;48.514;14.500;2023-08-17T14:17:57;5.93;;;3.00;;
81160;SDS011;70637;48.514;14.500;2023-08-17T14:20:23;4.80;;;3.13;;
81160;SDS011;70637;48.514;14.500;2023-08-17T14:22:48;6.30;;;3.35;;
81160;SDS011;70637;48.514;14.500;2023-08-17T14:25:14;4.53;;;3.08;;
81160;SDS011;70637;48.514;14.500;2023-08-17T14:27:40;5.25;;;2.95;;
81160;SDS011;70637;48.514;14.500;2023-08-17T14:30:06;3.30;;;3.00;;
81160;SDS011;70637;48.514;14.500;2023-08-17T14:32:32;3.88;;;2.90;;
81160;SDS011;70637;48.514;14.500;2023-08-17T14:34:58;5.40;;;3.00;;
81160;SDS011;70637;48.514;14.500;2023-08-17T14:37:24;3.95;;;2.90;;
81160;SDS011;70637;48.514;14.500;2023-08-17T14:39:50;5.57;;;3.08;;